createdAt,value
2022-12-24T00:01:33.883Z,70.99
2022-12-24T00:04:00.324Z,71.33
2022-12-24T00:06:26.703Z,70.73
2022-12-24T00:08:53.191Z,70.77
2022-12-24T00:11:20.777Z,71.39
2022-12-24T00:13:47.761Z,72.14
2022-12-24T00:16:14.612Z,72.64
2022-12-24T00:18:45.860Z,73.00
2022-12-24T00:21:14.193Z,73.46
2022-12-24T00:23:40.804Z,73.44
2022-12-24T00:26:07.307Z,73.78
2022-12-24T00:28:33.832Z,75.45
2022-12-24T00:31:00.364Z,74.59
2022-12-24T00:33:26.820Z,73.54
2022-12-24T00:35:53.603Z,75.23
2022-12-24T00:38:20.351Z,74.39
2022-12-24T00:40:46.947Z,73.56
2022-12-24T00:43:13.397Z,74.18
2022-12-24T00:45:39.888Z,74.19
2022-12-24T00:48:06.361Z,73.76
2022-12-24T00:50:32.864Z,73.74
2022-12-24T00:52:59.327Z,74.52
2022-12-24T00:55:25.700Z,73.49
2022-12-24T00:57:52.153Z,73.41
2022-12-24T01:00:18.924Z,73.20
2022-12-24T01:02:45.704Z,72.74
2022-12-24T01:05:12.865Z,73.62
2022-12-24T01:07:42.055Z,73.32
2022-12-24T01:10:09.285Z,73.15
2022-12-24T01:12:36.426Z,72.83
2022-12-24T01:15:03.921Z,73.58
2022-12-24T01:17:32.857Z,72.67
2022-12-24T01:19:59.275Z,73.21
2022-12-24T01:22:26.096Z,73.04
2022-12-24T01:24:52.609Z,73.50
2022-12-24T01:27:19.095Z,72.90
2022-12-24T01:29:45.607Z,73.49
2022-12-24T01:32:12.036Z,73.75
2022-12-24T01:34:38.520Z,73.76
2022-12-24T01:37:04.982Z,72.77
2022-12-24T01:39:31.485Z,73.48
2022-12-24T01:42:16.236Z,74.37
2022-12-24T01:44:44.903Z,74.25
2022-12-24T01:47:17.627Z,74.71
2022-12-24T01:49:53.886Z,74.60
2022-12-24T01:52:24.690Z,73.98
2022-12-24T01:54:57.624Z,74.58
2022-12-24T01:57:30.967Z,73.83
2022-12-24T02:00:02.706Z,74.58
2022-12-24T02:02:29.318Z,74.16
2022-12-24T02:05:16.765Z,75.14
2022-12-24T02:07:43.222Z,74.56
2022-12-24T02:10:12.180Z,74.30
2022-12-24T02:12:40.653Z,74.96
2022-12-24T02:15:09.180Z,75.00
2022-12-24T02:17:58.748Z,75.29
2022-12-24T02:20:31.532Z,75.92
2022-12-24T02:23:25.908Z,76.10
2022-12-24T02:25:55.218Z,76.15
2022-12-24T02:28:50.896Z,77.23
2022-12-24T02:31:17.349Z,77.49
2022-12-24T02:33:47.737Z,77.99
2022-12-24T02:36:34.775Z,78.33
2022-12-24T02:39:37.122Z,78.02
2022-12-24T02:42:06.037Z,78.95
2022-12-24T02:44:41.168Z,78.90
2022-12-24T02:47:09.840Z,79.26
2022-12-24T02:49:37.405Z,78.57
2022-12-24T02:52:04.071Z,78.86
2022-12-24T02:54:30.959Z,78.81
2022-12-24T02:57:18.678Z,78.42
2022-12-24T02:59:56.112Z,79.21
2022-12-24T03:02:52.878Z,78.77
2022-12-24T03:05:24.931Z,78.35
2022-12-24T03:08:07.086Z,78.07
2022-12-24T03:10:57.691Z,78.23
2022-12-24T03:13:26.496Z,79.17
2022-12-24T03:15:53.273Z,78.00
2022-12-24T03:18:30.147Z,78.47
2022-12-24T03:21:14.336Z,78.23
2022-12-24T03:23:41.043Z,78.87
2022-12-24T03:26:11.594Z,79.38
2022-12-24T03:28:40.884Z,78.04
2022-12-24T03:31:08.341Z,78.25
2022-12-24T03:33:35.090Z,77.99
2022-12-24T03:36:02.137Z,78.61
2022-12-24T03:38:28.623Z,79.31
2022-12-24T03:40:55.076Z,78.92
2022-12-24T03:43:21.516Z,78.94
2022-12-24T03:45:48.356Z,78.87
2022-12-24T03:48:14.997Z,79.48
2022-12-24T03:50:41.439Z,77.70
2022-12-24T03:53:07.912Z,78.36
2022-12-24T03:55:34.412Z,78.21
2022-12-24T03:58:00.839Z,78.76
2022-12-24T04:00:27.382Z,78.41
2022-12-24T04:02:54.299Z,78.06
2022-12-24T04:05:21.241Z,77.86
2022-12-24T04:07:48.210Z,78.26
2022-12-24T04:10:16.017Z,78.37
2022-12-24T04:12:42.999Z,77.57
2022-12-24T04:15:10.095Z,78.22
2022-12-24T04:17:36.919Z,78.92
2022-12-24T04:20:03.784Z,79.27
2022-12-24T04:22:30.197Z,78.66
2022-12-24T04:24:56.726Z,79.18
2022-12-24T04:27:28.370Z,78.82
2022-12-24T04:29:57.023Z,78.71
2022-12-24T04:32:26.370Z,78.90
2022-12-24T04:34:52.913Z,79.74
2022-12-24T04:37:19.271Z,80.32
2022-12-24T04:39:45.752Z,79.61
2022-12-24T04:42:12.140Z,79.81
2022-12-24T04:44:38.507Z,80.60
2022-12-24T04:47:04.917Z,80.53
2022-12-24T04:49:31.345Z,79.71
2022-12-24T04:51:57.708Z,80.20
2022-12-24T04:54:24.102Z,80.38
2022-12-24T04:56:50.579Z,80.77
2022-12-24T04:59:17.083Z,79.87
2022-12-24T05:01:43.512Z,79.58
2022-12-24T05:04:11.113Z,80.54
2022-12-24T05:06:37.609Z,80.35
2022-12-24T05:09:04.179Z,80.50
2022-12-24T05:11:31.581Z,80.75
2022-12-24T05:13:57.963Z,81.52
2022-12-24T05:16:24.886Z,81.72
2022-12-24T05:18:52.243Z,81.30
2022-12-24T05:21:21.860Z,81.94
2022-12-24T05:24:07.532Z,81.45
2022-12-24T05:26:48.239Z,82.21
2022-12-24T05:29:14.699Z,81.92
2022-12-24T05:31:42.777Z,82.29
2022-12-24T05:34:11.041Z,82.41
2022-12-24T05:36:37.551Z,82.07
2022-12-24T05:39:07.219Z,81.59
2022-12-24T05:41:36.400Z,82.03
2022-12-24T05:44:02.887Z,82.04
2022-12-24T05:46:29.352Z,81.74
2022-12-24T05:48:55.761Z,81.93
2022-12-24T05:51:22.673Z,81.95
2022-12-24T05:53:50.843Z,82.03
2022-12-24T05:56:22.613Z,81.67
2022-12-24T05:58:49.859Z,81.91
2022-12-24T06:01:16.814Z,81.60
2022-12-24T06:03:43.311Z,82.55
2022-12-24T06:06:12.827Z,82.81
2022-12-24T06:08:40.337Z,82.51
2022-12-24T06:11:10.931Z,82.89
2022-12-24T06:13:37.733Z,82.66
2022-12-24T06:16:06.581Z,82.97
2022-12-24T06:18:35.680Z,82.28
2022-12-24T06:21:04.132Z,82.18
2022-12-24T06:23:33.131Z,82.26
2022-12-24T06:26:01.166Z,84.20
2022-12-24T06:28:32.056Z,85.72
2022-12-24T06:31:02.948Z,87.30
2022-12-24T06:33:34.482Z,87.96
2022-12-24T06:36:01.185Z,88.81
2022-12-24T06:38:30.383Z,88.83
2022-12-24T06:40:57.025Z,88.41
2022-12-24T06:43:23.459Z,89.58
2022-12-24T06:45:50.394Z,91.10
2022-12-24T06:48:17.218Z,91.70
2022-12-24T06:50:43.742Z,92.66
2022-12-24T06:53:10.507Z,93.15
2022-12-24T06:55:37.431Z,93.06
2022-12-24T06:58:04.077Z,93.23
2022-12-24T07:00:30.741Z,92.44
2022-12-24T07:02:57.226Z,92.79
2022-12-24T07:05:23.697Z,92.22
2022-12-24T07:07:50.202Z,94.08
2022-12-24T07:10:18.269Z,95.47
2022-12-24T07:12:46.046Z,96.03
2022-12-24T07:15:12.803Z,96.26
2022-12-24T07:17:39.726Z,96.09
2022-12-24T07:20:07.787Z,95.00
2022-12-24T07:22:34.286Z,94.24
2022-12-24T07:25:00.766Z,92.93
2022-12-24T07:27:27.250Z,92.64
2022-12-24T07:29:53.794Z,95.28
2022-12-24T07:32:21.080Z,95.99
2022-12-24T07:34:47.752Z,94.97
2022-12-24T07:37:14.420Z,95.41
2022-12-24T07:39:40.848Z,96.18
2022-12-24T07:42:08.487Z,95.12
2022-12-24T07:44:35.257Z,94.95
2022-12-24T07:47:02.113Z,94.37
2022-12-24T07:49:28.929Z,95.56
2022-12-24T07:51:55.517Z,96.00
2022-12-24T07:54:22.232Z,96.17
2022-12-24T07:56:48.698Z,95.83
2022-12-24T07:59:15.680Z,95.55
2022-12-24T08:01:42.626Z,94.22
2022-12-24T08:04:09.270Z,93.81
2022-12-24T08:06:35.729Z,94.49
2022-12-24T08:09:02.445Z,93.25
2022-12-24T08:11:29.005Z,92.27
2022-12-24T08:13:55.410Z,91.07
2022-12-24T08:16:22.400Z,91.27
2022-12-24T08:18:48.863Z,90.20
2022-12-24T08:21:15.520Z,89.83
2022-12-24T08:23:41.959Z,90.59
2022-12-24T08:26:10.141Z,89.95
2022-12-24T08:28:37.128Z,89.00
2022-12-24T08:31:04.281Z,89.00
2022-12-24T08:33:32.255Z,88.55
2022-12-24T08:36:01.859Z,87.40
2022-12-24T08:38:28.513Z,88.27
2022-12-24T08:40:56.610Z,87.79
2022-12-24T08:43:23.376Z,87.09
2022-12-24T08:45:50.254Z,86.98
2022-12-24T08:48:17.092Z,87.17
2022-12-24T08:50:43.599Z,87.10
2022-12-24T08:53:10.726Z,86.54
2022-12-24T08:55:37.223Z,84.96
2022-12-24T08:58:04.039Z,84.96
2022-12-24T09:00:30.476Z,85.03
2022-12-24T09:02:57.640Z,84.98
2022-12-24T09:05:25.860Z,84.56
2022-12-24T09:07:52.370Z,84.85
2022-12-24T09:10:18.879Z,84.02
2022-12-24T09:12:45.323Z,83.19
2022-12-24T09:15:11.907Z,82.43
2022-12-24T09:17:38.269Z,81.50
2022-12-24T09:20:06.834Z,81.17
2022-12-24T09:22:38.030Z,79.47
2022-12-24T09:25:06.190Z,76.54
2022-12-24T09:27:33.132Z,74.53
2022-12-24T09:29:59.674Z,72.44
2022-12-24T09:32:26.145Z,72.53
2022-12-24T09:34:52.585Z,70.91
2022-12-24T09:37:19.087Z,69.96
2022-12-24T09:39:45.449Z,72.83
2022-12-24T09:42:17.894Z,72.91
2022-12-24T09:45:20.268Z,76.51
2022-12-24T09:47:52.650Z,77.70
2022-12-24T09:50:33.328Z,75.66
2022-12-24T09:53:04.630Z,76.48
2022-12-24T09:55:36.871Z,76.10
2022-12-24T09:58:06.683Z,75.37
2022-12-24T10:00:37.304Z,76.33
2022-12-24T10:03:15.411Z,76.50
2022-12-24T10:05:52.738Z,75.53
2022-12-24T10:08:23.827Z,73.12
2022-12-24T10:10:55.656Z,71.09
2022-12-24T10:13:31.409Z,68.83
2022-12-24T10:16:09.023Z,67.24
2022-12-24T10:18:56.002Z,64.49
2022-12-24T10:21:34.770Z,63.53
2022-12-24T10:24:12.088Z,61.63
2022-12-24T10:26:46.030Z,62.97
2022-12-24T10:29:17.895Z,66.99
2022-12-24T10:32:16.672Z,69.24
2022-12-24T10:34:52.380Z,71.79
2022-12-24T10:37:28.597Z,70.80
2022-12-24T10:40:00.351Z,72.31
2022-12-24T10:42:50.668Z,72.94
2022-12-24T10:45:21.692Z,71.85
2022-12-24T10:47:52.708Z,71.91
2022-12-24T10:50:29.825Z,70.64
2022-12-24T10:53:04.517Z,70.54
2022-12-24T10:55:31.093Z,71.71
2022-12-24T10:58:04.250Z,73.75
2022-12-24T11:00:35.861Z,75.26
2022-12-24T11:03:12.018Z,73.60
2022-12-24T11:05:39.803Z,75.18
2022-12-24T11:08:12.447Z,75.09
2022-12-24T11:10:42.538Z,74.42
2022-12-24T11:13:41.916Z,74.27
2022-12-24T11:16:23.692Z,73.00
2022-12-24T11:18:56.119Z,74.37
2022-12-24T11:21:39.332Z,72.51
2022-12-24T11:24:27.950Z,68.81
2022-12-24T11:26:54.642Z,66.01
2022-12-24T11:29:26.483Z,65.99
2022-12-24T11:32:09.930Z,64.17
2022-12-24T11:34:36.369Z,66.47
2022-12-24T11:37:15.499Z,68.09
2022-12-24T11:39:47.514Z,68.60
2022-12-24T11:42:28.372Z,70.44
2022-12-24T11:44:56.421Z,71.24
2022-12-24T11:47:37.230Z,71.57
2022-12-24T11:50:22.992Z,73.40
2022-12-24T11:53:20.662Z,74.10
2022-12-24T11:55:56.466Z,75.37
2022-12-24T11:58:44.856Z,74.54
2022-12-24T12:01:15.468Z,72.67
2022-12-24T12:03:48.287Z,70.77
2022-12-24T12:06:27.519Z,73.07
2022-12-24T12:09:07.166Z,69.58
2022-12-24T12:11:35.669Z,68.01
2022-12-24T12:14:04.605Z,68.25
2022-12-24T12:17:03.595Z,68.07
2022-12-24T12:19:37.198Z,65.79
2022-12-24T12:22:07.860Z,67.36
2022-12-24T12:24:40.297Z,66.21
2022-12-24T12:27:32.484Z,65.13
2022-12-24T12:30:03.048Z,65.45
2022-12-24T12:32:50.524Z,61.95
2022-12-24T12:35:24.905Z,62.16
2022-12-24T12:37:58.103Z,60.45
2022-12-24T12:40:35.545Z,60.81
2022-12-24T12:43:29.947Z,59.30
2022-12-24T12:46:12.835Z,60.03
2022-12-24T12:49:15.576Z,61.85
2022-12-24T12:51:59.309Z,64.46
2022-12-24T12:54:47.836Z,65.15
2022-12-24T12:57:19.622Z,66.58
2022-12-24T12:59:59.184Z,66.39
2022-12-24T13:02:37.612Z,66.03
2022-12-24T13:05:22.650Z,67.38
2022-12-24T13:08:16.872Z,66.37
2022-12-24T13:11:14.763Z,66.62
2022-12-24T13:14:10.575Z,67.76
2022-12-24T13:17:13.818Z,67.44
2022-12-24T13:19:59.089Z,69.91
2022-12-24T13:22:25.604Z,69.78
2022-12-24T13:24:54.139Z,69.65
2022-12-24T13:27:25.984Z,69.75
2022-12-24T13:29:54.323Z,69.33
2022-12-24T13:32:20.757Z,69.18
2022-12-24T13:35:01.608Z,70.48
2022-12-24T13:37:31.013Z,70.10
2022-12-24T13:40:10.472Z,70.57
2022-12-24T13:43:08.914Z,71.65
2022-12-24T13:45:38.719Z,71.42
2022-12-24T13:48:11.208Z,71.84
2022-12-24T13:50:38.886Z,71.22
2022-12-24T13:53:18.489Z,72.07
2022-12-24T13:56:14.494Z,72.61
2022-12-24T13:58:45.660Z,73.16
2022-12-24T14:01:17.024Z,73.51
2022-12-24T14:03:47.948Z,74.64
2022-12-24T14:06:26.950Z,74.28
2022-12-24T14:08:58.456Z,74.79
2022-12-24T14:11:28.323Z,74.87
2022-12-24T14:14:32.571Z,76.07
2022-12-24T14:17:14.599Z,75.17
2022-12-24T14:19:47.765Z,74.60
2022-12-24T14:22:34.082Z,74.93
2022-12-24T14:25:22.784Z,74.75
2022-12-24T14:27:58.593Z,75.97
2022-12-24T14:30:27.743Z,76.30
2022-12-24T14:32:54.955Z,76.80
2022-12-24T14:35:30.779Z,76.04
2022-12-24T14:38:04.478Z,76.60
2022-12-24T14:40:34.407Z,77.00
2022-12-24T14:43:14.041Z,76.72
2022-12-24T14:45:47.450Z,77.94
2022-12-24T14:48:41.334Z,78.39
2022-12-24T14:51:15.139Z,78.12
2022-12-24T14:54:08.396Z,79.19
2022-12-24T14:56:34.842Z,79.36
2022-12-24T14:59:14.656Z,79.11
2022-12-24T15:01:41.298Z,79.20
2022-12-24T15:04:10.589Z,79.94
2022-12-24T15:06:39.430Z,79.23
2022-12-24T15:09:13.977Z,79.43
2022-12-24T15:11:44.041Z,79.22
2022-12-24T15:14:12.667Z,78.55
2022-12-24T15:16:39.788Z,78.40
2022-12-24T15:19:20.139Z,81.17
2022-12-24T15:21:46.715Z,80.65
2022-12-24T15:24:34.372Z,80.71
2022-12-24T15:27:03.127Z,80.79
2022-12-24T15:29:32.475Z,80.51
2022-12-24T15:32:01.427Z,79.86
2022-12-24T15:34:39.715Z,80.99
2022-12-24T15:37:12.128Z,81.07
2022-12-24T15:39:39.951Z,82.15
2022-12-24T15:42:14.338Z,83.08
2022-12-24T15:44:47.555Z,82.78
2022-12-24T15:47:21.686Z,83.71
2022-12-24T15:49:50.937Z,83.52
2022-12-24T15:52:20.831Z,84.29
2022-12-24T15:54:55.417Z,85.97
2022-12-24T15:57:29.700Z,85.18
2022-12-24T15:59:58.042Z,86.18
2022-12-24T16:02:40.174Z,85.62
2022-12-24T16:05:21.747Z,87.03
2022-12-24T16:08:09.550Z,87.08
2022-12-24T16:10:49.664Z,87.77
2022-12-24T16:13:30.169Z,86.69
2022-12-24T16:16:08.351Z,87.68
2022-12-24T16:18:44.610Z,90.09
2022-12-24T16:21:19.958Z,92.13
2022-12-24T16:23:48.585Z,92.23
2022-12-24T16:26:14.976Z,92.19
2022-12-24T16:28:41.623Z,90.06
2022-12-24T16:31:08.212Z,90.60
2022-12-24T16:33:34.817Z,91.85
2022-12-24T16:36:01.421Z,92.90
2022-12-24T16:38:47.851Z,93.82
2022-12-24T16:41:14.265Z,93.70
2022-12-24T16:43:49.445Z,93.36
2022-12-24T16:46:16.173Z,92.99
2022-12-24T16:48:46.026Z,92.69
2022-12-24T16:51:12.571Z,93.31
2022-12-24T16:53:39.073Z,92.86
2022-12-24T16:56:05.771Z,92.07
2022-12-24T16:58:33.074Z,92.63
2022-12-24T17:01:06.383Z,92.56
2022-12-24T17:03:33.001Z,91.46
2022-12-24T17:06:03.724Z,90.76
2022-12-24T17:08:30.189Z,89.95
2022-12-24T17:10:56.636Z,90.01
2022-12-24T17:13:23.193Z,89.91
2022-12-24T17:15:49.646Z,89.61
2022-12-24T17:18:17.576Z,89.10
2022-12-24T17:20:44.030Z,89.92
2022-12-24T17:23:10.789Z,89.46
2022-12-24T17:25:37.240Z,90.26
2022-12-24T17:28:03.815Z,88.88
2022-12-24T17:30:30.175Z,89.30
2022-12-24T17:32:56.677Z,89.73
2022-12-24T17:35:23.068Z,89.53
2022-12-24T17:37:49.536Z,88.26
2022-12-24T17:40:16.023Z,88.35
2022-12-24T17:42:43.600Z,88.63
2022-12-24T17:45:10.375Z,89.34
2022-12-24T17:47:36.786Z,91.64
2022-12-24T17:50:03.460Z,91.23
2022-12-24T17:52:29.923Z,90.96
2022-12-24T17:54:56.381Z,91.96
2022-12-24T17:57:22.880Z,91.76
2022-12-24T17:59:49.292Z,92.68
2022-12-24T18:02:15.981Z,92.20
2022-12-24T18:04:42.480Z,91.64
2022-12-24T18:07:09.011Z,91.42
2022-12-24T18:09:35.438Z,91.26
2022-12-24T18:12:02.066Z,91.71
2022-12-24T18:14:28.484Z,91.85
2022-12-24T18:16:55.137Z,91.20
2022-12-24T18:19:21.763Z,91.89
2022-12-24T18:21:48.190Z,92.46
2022-12-24T18:24:14.697Z,92.93
2022-12-24T18:26:41.168Z,93.16
2022-12-24T18:29:08.704Z,93.50
2022-12-24T18:31:35.638Z,94.80
2022-12-24T18:34:04.367Z,94.83
2022-12-24T18:36:31.119Z,95.25
2022-12-24T18:38:58.036Z,95.37
2022-12-24T18:41:26.585Z,96.14
2022-12-24T18:43:54.043Z,94.94
2022-12-24T18:46:26.236Z,94.45
2022-12-24T18:48:54.722Z,92.69
2022-12-24T18:51:22.842Z,91.77
2022-12-24T18:53:50.212Z,91.32
2022-12-24T18:56:25.182Z,92.10
2022-12-24T18:58:56.509Z,91.83
2022-12-24T19:01:31.641Z,92.10
2022-12-24T19:03:58.965Z,92.36
2022-12-24T19:06:25.947Z,92.70
2022-12-24T19:09:01.735Z,93.93
2022-12-24T19:11:30.732Z,93.85
2022-12-24T19:13:58.450Z,94.75
2022-12-24T19:16:25.839Z,94.99
2022-12-24T19:18:52.317Z,94.47
2022-12-24T19:21:19.052Z,93.17
2022-12-24T19:23:46.284Z,92.75
2022-12-24T19:26:14.521Z,92.75
2022-12-24T19:28:41.265Z,90.98
2022-12-24T19:31:10.460Z,91.46
2022-12-24T19:33:43.116Z,92.92
2022-12-24T19:36:13.013Z,93.23
2022-12-24T19:38:39.801Z,92.42
2022-12-24T19:41:13.648Z,92.63
2022-12-24T19:43:42.295Z,93.85
2022-12-24T19:46:10.297Z,99.26
2022-12-24T19:48:37.187Z,100.00
2022-12-24T19:51:05.957Z,99.47
2022-12-24T19:53:32.817Z,99.05
2022-12-24T19:55:59.392Z,97.34
2022-12-24T19:58:27.284Z,95.89
2022-12-24T20:00:54.271Z,96.00
2022-12-24T20:03:21.745Z,94.35
2022-12-24T20:05:48.309Z,90.06
2022-12-24T20:08:14.714Z,87.76
2022-12-24T20:10:42.894Z,88.19
2022-12-24T20:13:10.112Z,88.54
2022-12-24T20:15:41.383Z,88.56
2022-12-24T20:18:08.518Z,88.08
2022-12-24T20:20:35.003Z,88.19
2022-12-24T20:23:02.178Z,88.38
2022-12-24T20:25:29.025Z,88.95
2022-12-24T20:27:55.438Z,90.03
2022-12-24T20:30:21.872Z,92.34
2022-12-24T20:32:48.345Z,93.19
2022-12-24T20:35:14.980Z,95.01
2022-12-24T20:37:46.145Z,94.41
2022-12-24T20:40:13.064Z,94.38
2022-12-24T20:42:39.715Z,94.17
2022-12-24T20:45:06.762Z,93.61
2022-12-24T20:47:33.427Z,92.15
2022-12-24T20:49:59.863Z,91.98
2022-12-24T20:52:26.466Z,92.00
2022-12-24T20:54:52.883Z,91.46
2022-12-24T20:57:25.195Z,91.89
2022-12-24T20:59:53.270Z,91.60
2022-12-24T21:02:19.845Z,91.81
2022-12-24T21:04:46.534Z,91.14
2022-12-24T21:07:15.221Z,91.11
2022-12-24T21:09:42.007Z,91.68
2022-12-24T21:12:29.977Z,91.86
2022-12-24T21:14:56.666Z,92.12
2022-12-24T21:17:23.133Z,92.47
2022-12-24T21:19:49.582Z,93.23
2022-12-24T21:22:16.039Z,94.10
2022-12-24T21:24:42.491Z,93.77
2022-12-24T21:27:08.900Z,94.49
2022-12-24T21:29:35.474Z,94.78
2022-12-24T21:32:01.856Z,93.71
2022-12-24T21:34:28.343Z,92.68
2022-12-24T21:36:54.958Z,91.58
2022-12-24T21:39:21.546Z,91.81
2022-12-24T21:41:48.194Z,91.16
2022-12-24T21:44:14.751Z,91.17
2022-12-24T21:46:41.754Z,91.73
2022-12-24T21:49:28.540Z,92.08
2022-12-24T21:51:55.155Z,91.80
2022-12-24T21:54:26.840Z,90.08
2022-12-24T21:57:14.985Z,91.09
2022-12-24T21:59:41.426Z,91.64
2022-12-24T22:02:11.124Z,93.93
2022-12-24T22:04:38.121Z,94.84
2022-12-24T22:07:23.670Z,95.52
2022-12-24T22:10:09.049Z,94.78
2022-12-24T22:12:36.279Z,94.73
2022-12-24T22:15:05.792Z,94.38
2022-12-24T22:17:32.340Z,93.24
2022-12-24T22:19:58.814Z,92.03
2022-12-24T22:22:25.278Z,91.27
2022-12-24T22:24:51.736Z,91.72
2022-12-24T22:27:18.589Z,91.88
2022-12-24T22:29:45.233Z,92.83
2022-12-24T22:32:11.682Z,94.35
2022-12-24T22:34:38.154Z,94.19
2022-12-24T22:37:04.619Z,94.40
2022-12-24T22:39:31.072Z,95.00
2022-12-24T22:41:58.180Z,94.37
2022-12-24T22:44:25.134Z,93.28
2022-12-24T22:46:51.554Z,93.97
2022-12-24T22:49:18.179Z,94.37
2022-12-24T22:51:44.605Z,94.55
2022-12-24T22:54:11.188Z,93.99
2022-12-24T22:56:41.229Z,93.74
2022-12-24T22:59:12.106Z,92.60
2022-12-24T23:01:40.907Z,91.92
2022-12-24T23:04:07.979Z,91.54
2022-12-24T23:06:35.359Z,92.14
2022-12-24T23:09:03.182Z,91.63
2022-12-24T23:11:29.885Z,91.64
2022-12-24T23:14:14.647Z,91.87
2022-12-24T23:16:41.073Z,91.43
2022-12-24T23:19:07.637Z,91.58
2022-12-24T23:21:35.739Z,91.68
2022-12-24T23:24:02.561Z,91.99
2022-12-24T23:26:29.487Z,91.91
2022-12-24T23:28:57.083Z,91.58
2022-12-24T23:31:24.387Z,91.69
2022-12-24T23:33:51.265Z,91.31
2022-12-24T23:36:18.002Z,90.96
2022-12-24T23:38:44.385Z,92.85
2022-12-24T23:41:11.733Z,93.30
2022-12-24T23:43:38.253Z,93.23
2022-12-24T23:46:05.141Z,93.39
2022-12-24T23:48:31.690Z,94.00
2022-12-24T23:51:13.791Z,93.50
2022-12-24T23:53:40.417Z,93.37
2022-12-24T23:56:08.066Z,93.76
2022-12-24T23:58:34.693Z,94.20
